createdAt,value
2018-09-04T00:00:16.463Z,80.10
2018-09-04T00:01:16.706Z,82.10
2018-09-04T00:02:16.948Z,81.50
2018-09-04T00:03:17.187Z,72.90
2018-09-04T00:04:17.432Z,80.70
2018-09-04T00:05:17.673Z,73.80
2018-09-04T00:06:17.914Z,77.30
2018-09-04T00:07:18.157Z,76.10
2018-09-04T00:08:18.400Z,70.40
2018-09-04T00:09:18.642Z,69.30
2018-09-04T00:10:18.884Z,69.30
2018-09-04T00:11:19.127Z,69.10
2018-09-04T00:12:19.369Z,66.80
2018-09-04T00:13:19.611Z,72.00
2018-09-04T00:14:19.853Z,76.00
2018-09-04T00:15:20.093Z,76.30
2018-09-04T00:16:20.335Z,74.50
2018-09-04T00:17:20.577Z,72.50
2018-09-04T00:18:20.818Z,76.70
2018-09-04T00:19:21.058Z,73.00
2018-09-04T00:20:21.298Z,69.30
2018-09-04T00:21:21.541Z,76.30
2018-09-04T00:22:21.781Z,77.70
2018-09-04T00:23:22.024Z,75.10
2018-09-04T00:24:22.265Z,76.10
2018-09-04T00:25:22.506Z,75.20
2018-09-04T00:26:22.747Z,77.00
2018-09-04T00:27:22.989Z,79.50
2018-09-04T00:28:23.230Z,76.50
2018-09-04T00:29:23.471Z,89.40
2018-09-04T00:30:23.713Z,67.70
2018-09-04T00:31:23.954Z,76.00
2018-09-04T00:32:24.198Z,75.30
2018-09-04T00:33:24.438Z,78.50
2018-09-04T00:34:24.766Z,78.10
2018-09-04T00:35:24.922Z,74.40
2018-09-04T00:36:25.166Z,76.00
2018-09-04T00:37:25.404Z,80.90
2018-09-04T00:38:25.648Z,77.00
2018-09-04T00:39:25.888Z,73.00
2018-09-04T00:40:26.128Z,72.00
2018-09-04T00:41:26.369Z,67.40
2018-09-04T00:42:26.611Z,68.70
2018-09-04T00:43:26.851Z,68.80
2018-09-04T00:44:27.093Z,74.40
2018-09-04T00:45:27.335Z,80.80
2018-09-04T00:46:27.577Z,102.90
2018-09-04T00:47:27.816Z,96.70
2018-09-04T00:48:28.056Z,103.10
2018-09-04T00:49:28.298Z,87.80
2018-09-04T00:50:28.537Z,93.30
2018-09-04T00:51:28.779Z,95.10
2018-09-04T00:52:29.020Z,94.20
2018-09-04T00:53:29.259Z,110.50
2018-09-04T00:54:29.503Z,89.50
2018-09-04T00:55:29.747Z,85.00
2018-09-04T00:56:29.985Z,78.60
2018-09-04T00:57:30.226Z,74.80
2018-09-04T00:58:30.466Z,76.70
2018-09-04T00:59:30.707Z,101.20
2018-09-04T01:00:30.947Z,114.90
2018-09-04T01:01:31.190Z,110.90
2018-09-04T01:02:31.431Z,89.10
2018-09-04T01:03:31.670Z,98.80
2018-09-04T01:04:31.911Z,99.70
2018-09-04T01:05:32.152Z,111.00
2018-09-04T01:06:32.392Z,101.20
2018-09-04T01:07:32.634Z,97.50
2018-09-04T01:08:32.880Z,103.50
2018-09-04T01:09:33.115Z,109.50
2018-09-04T01:10:33.358Z,103.80
2018-09-04T01:11:33.597Z,104.20
2018-09-04T01:12:33.839Z,100.70
2018-09-04T01:13:34.080Z,112.50
2018-09-04T01:14:34.321Z,88.30
2018-09-04T01:15:34.563Z,80.90
2018-09-04T01:16:34.802Z,83.00
2018-09-04T01:17:35.043Z,84.20
2018-09-04T01:18:35.283Z,85.30
2018-09-04T01:35:13.507Z,67.30
2018-09-04T01:35:51.263Z,79.20
2018-09-04T01:36:51.503Z,69.10
2018-09-04T01:37:51.746Z,65.90
2018-09-04T01:38:51.986Z,65.30
2018-09-04T01:39:52.228Z,67.50
2018-09-04T01:40:52.469Z,58.70
2018-09-04T01:41:52.709Z,81.80
2018-09-04T01:42:52.950Z,65.10
2018-09-04T01:43:53.191Z,67.80
2018-09-04T01:44:53.431Z,80.00
2018-09-04T01:45:53.672Z,83.80
2018-09-04T01:46:53.914Z,68.60
2018-09-04T01:47:54.155Z,67.00
2018-09-04T01:48:54.397Z,75.40
2018-09-04T01:49:54.636Z,72.80
2018-09-04T01:50:54.877Z,84.50
2018-09-04T01:51:55.120Z,84.10
2018-09-04T01:52:55.360Z,102.70
2018-09-04T01:53:55.602Z,116.50
2018-09-04T01:54:55.843Z,120.70
2018-09-04T01:55:56.089Z,97.90
2018-09-04T01:56:56.325Z,93.10
2018-09-04T01:57:56.567Z,112.30
2018-09-04T01:58:56.809Z,90.30
2018-09-04T01:59:57.050Z,79.70
2018-09-04T02:00:57.291Z,69.70
2018-09-04T02:01:57.537Z,68.30
2018-09-04T02:02:57.774Z,67.40
2018-09-04T02:03:58.014Z,62.90
2018-09-04T02:04:58.254Z,78.70
2018-09-04T02:05:58.497Z,61.00
2018-09-04T02:06:58.736Z,64.50
2018-09-04T02:07:58.977Z,64.60
2018-09-04T02:08:59.218Z,63.50
2018-09-04T02:09:59.459Z,92.20
2018-09-04T02:10:59.700Z,91.80
2018-09-04T02:11:59.943Z,84.00
2018-09-04T02:13:00.184Z,99.30
2018-09-04T02:14:00.423Z,82.60
2018-09-04T02:15:00.664Z,73.00
2018-09-04T02:16:00.905Z,69.50
2018-09-04T02:17:01.146Z,65.10
2018-09-04T02:18:01.388Z,90.60
2018-09-04T02:19:01.629Z,70.30
2018-09-04T02:20:01.869Z,76.70
2018-09-04T02:21:02.112Z,72.50
2018-09-04T02:22:02.353Z,73.30
2018-09-04T02:23:02.594Z,63.70
2018-09-04T02:24:02.836Z,68.60
2018-09-04T02:25:03.076Z,61.10
2018-09-04T02:26:03.317Z,86.80
2018-09-04T02:27:03.559Z,87.60
2018-09-04T02:28:03.799Z,83.30
2018-09-04T02:29:04.041Z,79.00
2018-09-04T02:30:04.281Z,79.40
2018-09-04T02:31:04.523Z,70.00
2018-09-04T02:32:04.764Z,88.90
2018-09-04T02:33:05.064Z,70.00
2018-09-04T02:34:05.247Z,67.80
2018-09-04T02:35:05.490Z,72.60
2018-09-04T02:36:05.732Z,66.20
2018-09-04T02:37:05.973Z,84.20
2018-09-04T02:38:06.214Z,73.70
2018-09-04T02:39:06.456Z,70.20
2018-09-04T02:40:06.696Z,72.50
2018-09-04T02:41:06.938Z,71.40
2018-09-04T02:42:07.178Z,70.70
2018-09-04T02:43:07.421Z,76.50
2018-09-04T02:44:07.663Z,71.80
2018-09-04T02:45:07.906Z,88.10
2018-09-04T02:46:08.145Z,78.80
2018-09-04T02:47:08.387Z,72.80
2018-09-04T02:48:08.629Z,74.30
2018-09-04T02:49:08.869Z,83.00
2018-09-04T02:50:09.112Z,83.10
2018-09-04T02:51:09.354Z,73.40
2018-09-04T02:52:09.596Z,65.00
2018-09-04T02:53:09.840Z,73.30
2018-09-04T02:54:10.079Z,63.60
2018-09-04T02:55:10.319Z,63.30
2018-09-04T02:56:10.561Z,61.60
2018-09-04T02:57:10.800Z,65.70
2018-09-04T02:58:11.042Z,68.10
2018-09-04T02:59:11.283Z,69.90
2018-09-04T03:00:11.526Z,64.70
2018-09-04T03:01:11.764Z,72.40
2018-09-04T03:02:12.003Z,68.70
2018-09-04T03:03:12.249Z,71.10
2018-09-04T03:04:12.490Z,69.10
2018-09-04T03:05:12.732Z,75.80
2018-09-04T03:06:12.971Z,70.00
2018-09-04T03:07:13.214Z,66.30
2018-09-04T03:08:13.455Z,63.10
2018-09-04T03:09:13.696Z,61.10
2018-09-04T03:10:13.937Z,68.90
2018-09-04T03:11:14.178Z,75.70
2018-09-04T03:12:14.419Z,77.00
2018-09-04T03:13:14.666Z,69.60
2018-09-04T03:14:14.900Z,72.40
2018-09-04T03:15:15.143Z,86.60
2018-09-04T03:16:15.383Z,71.40
2018-09-04T03:17:15.626Z,65.00
2018-09-04T03:18:15.867Z,66.40
2018-09-04T03:19:16.108Z,59.20
2018-09-04T03:20:16.351Z,59.60
2018-09-04T03:21:16.590Z,62.20
2018-09-04T03:22:16.832Z,62.70
2018-09-04T03:23:17.095Z,57.80
2018-09-04T03:24:17.316Z,58.30
2018-09-04T03:25:17.560Z,57.90
2018-09-04T03:26:17.800Z,57.20
2018-09-04T03:27:18.042Z,58.20
2018-09-04T03:28:18.283Z,57.80
2018-09-04T03:29:18.524Z,58.00
2018-09-04T03:30:18.768Z,77.90
2018-09-04T03:31:19.006Z,64.50
2018-09-04T03:32:19.248Z,57.10
2018-09-04T03:33:19.490Z,53.20
2018-09-04T03:34:19.730Z,56.40
2018-09-04T03:35:19.972Z,57.20
2018-09-04T03:36:20.213Z,57.60
2018-09-04T03:37:20.455Z,61.80
2018-09-04T03:38:20.696Z,56.80
2018-09-04T03:39:20.939Z,63.00
2018-09-04T03:40:21.181Z,70.70
2018-09-04T03:41:21.424Z,75.80
2018-09-04T03:42:21.702Z,80.00
2018-09-04T03:43:21.900Z,66.70
2018-09-04T03:44:22.178Z,82.30
2018-09-04T03:45:22.381Z,59.00
2018-09-04T03:46:22.629Z,49.40
2018-09-04T03:47:22.864Z,53.20
2018-09-04T03:48:23.106Z,50.70
2018-09-04T03:49:23.346Z,91.20
2018-09-04T03:50:23.587Z,83.10
2018-09-04T03:51:23.829Z,69.90
2018-09-04T03:52:24.125Z,83.20
2018-09-04T03:53:24.311Z,76.50
2018-09-04T03:54:24.554Z,72.30
2018-09-04T03:55:24.793Z,82.80
2018-09-04T03:56:25.035Z,78.60
2018-09-04T03:57:25.276Z,71.60
2018-09-04T03:58:25.518Z,67.30
2018-09-04T03:59:25.814Z,88.80
2018-09-04T04:00:26.006Z,87.70
2018-09-04T04:01:26.280Z,86.70
2018-09-04T04:02:26.487Z,70.40
2018-09-04T04:03:26.728Z,72.40
2018-09-04T04:04:26.969Z,66.20
2018-09-04T04:05:27.212Z,68.10
2018-09-04T04:06:27.461Z,57.90
2018-09-04T04:07:27.699Z,64.60
2018-09-04T04:08:27.938Z,72.50
2018-09-04T04:09:28.179Z,64.10
2018-09-04T04:10:28.421Z,79.80
2018-09-04T04:11:28.661Z,84.30
2018-09-04T04:12:28.903Z,78.50
2018-09-04T04:13:29.145Z,74.80
2018-09-04T04:14:29.386Z,86.80
2018-09-04T04:15:29.628Z,74.40
2018-09-04T04:16:29.869Z,64.30
2018-09-04T04:17:30.113Z,78.60
2018-09-04T04:18:30.353Z,70.40
2018-09-04T04:19:30.595Z,80.60
2018-09-04T04:20:30.837Z,70.90
2018-09-04T04:21:31.079Z,75.50
2018-09-04T04:22:31.319Z,81.60
2018-09-04T04:23:31.563Z,67.70
2018-09-04T04:24:31.804Z,71.50
2018-09-04T04:25:32.046Z,76.00
2018-09-04T04:26:32.289Z,58.00
2018-09-04T04:27:32.531Z,53.30
2018-09-04T04:28:32.774Z,52.40
2018-09-04T04:29:33.020Z,52.00
2018-09-04T04:30:33.261Z,53.00
2018-09-04T04:31:33.547Z,48.20
2018-09-04T04:32:33.742Z,48.40
2018-09-04T04:33:33.985Z,49.00
2018-09-04T04:34:34.228Z,50.80
2018-09-04T04:35:34.467Z,49.30
2018-09-04T04:36:34.709Z,54.30
2018-09-04T04:37:34.953Z,50.50
2018-09-04T04:38:35.193Z,52.50
2018-09-04T04:39:35.439Z,57.10
2018-09-04T04:40:35.677Z,55.70
2018-09-04T04:41:35.917Z,64.90
2018-09-04T04:42:36.161Z,67.50
2018-09-04T04:43:36.401Z,81.10
2018-09-04T04:44:36.643Z,84.70
2018-09-04T04:45:36.883Z,73.60
2018-09-04T04:46:37.126Z,82.90
2018-09-04T04:47:37.367Z,63.60
2018-09-04T04:48:37.608Z,70.40
2018-09-04T04:49:37.851Z,75.90
2018-09-04T04:50:38.093Z,83.70
2018-09-04T04:51:38.334Z,74.20
2018-09-04T04:52:38.577Z,80.60
2018-09-04T04:53:38.819Z,95.80
2018-09-04T04:54:39.061Z,100.30
2018-09-04T04:55:39.306Z,97.50
2018-09-04T04:56:39.546Z,83.50
2018-09-04T04:57:39.788Z,75.70
2018-09-04T04:58:40.030Z,72.80
2018-09-04T04:59:40.272Z,82.00
2018-09-04T05:00:40.514Z,67.20
2018-09-04T05:01:40.757Z,87.40
2018-09-04T05:02:40.999Z,96.20
2018-09-04T05:03:41.241Z,79.40
2018-09-04T05:04:41.482Z,86.60
2018-09-04T05:05:41.722Z,84.80
2018-09-04T05:06:41.965Z,85.20
2018-09-04T05:07:42.209Z,86.90
2018-09-04T05:08:42.452Z,84.00
2018-09-04T05:09:42.741Z,88.20
2018-09-04T05:10:42.936Z,96.00
2018-09-04T05:11:43.200Z,94.80
2018-09-04T05:12:43.423Z,77.00
2018-09-04T05:13:43.665Z,72.20
2018-09-04T05:14:43.911Z,73.90
2018-09-04T05:15:44.149Z,76.10
2018-09-04T05:16:44.392Z,94.60
2018-09-04T05:17:44.632Z,90.00
2018-09-04T05:18:44.871Z,65.20
2018-09-04T05:19:45.120Z,59.10
2018-09-04T05:20:45.357Z,58.00
2018-09-04T05:21:45.598Z,58.30
2018-09-04T05:22:45.884Z,57.00
2018-09-04T05:23:46.083Z,56.80
2018-09-04T05:24:46.330Z,58.80
2018-09-04T05:25:46.566Z,56.60
2018-09-04T05:26:46.808Z,61.60
2018-09-04T05:27:47.051Z,56.30
2018-09-04T05:28:47.291Z,71.90
2018-09-04T05:29:47.534Z,85.90
2018-09-04T05:30:47.776Z,79.40
2018-09-04T05:31:48.016Z,77.70
2018-09-04T05:32:48.259Z,80.40
2018-09-04T05:33:48.500Z,62.40
2018-09-04T05:34:48.743Z,63.20
2018-09-04T05:35:48.987Z,61.00
2018-09-04T05:36:49.310Z,74.60
2018-09-04T05:37:49.471Z,69.70
2018-09-04T05:38:49.712Z,64.20
2018-09-04T05:39:49.957Z,70.90
2018-09-04T05:40:50.197Z,64.50
2018-09-04T05:41:50.438Z,52.70
2018-09-04T05:42:50.681Z,52.20
2018-09-04T05:43:50.922Z,58.80
2018-09-04T05:44:51.165Z,63.90
2018-09-04T05:45:51.407Z,66.40
2018-09-04T05:46:51.651Z,59.20
2018-09-04T05:47:51.892Z,55.90
2018-09-04T05:48:52.134Z,60.60
2018-09-04T05:49:52.378Z,73.80
2018-09-04T05:50:52.620Z,57.40
2018-09-04T05:51:52.862Z,62.40
2018-09-04T05:52:53.107Z,74.80
2018-09-04T05:53:53.347Z,71.50
2018-09-04T05:54:53.589Z,58.60
2018-09-04T05:55:53.835Z,59.20
2018-09-04T05:56:54.076Z,64.50
2018-09-04T05:57:54.318Z,52.00
2018-09-04T05:58:54.576Z,73.30
2018-09-04T05:59:54.847Z,68.20
2018-09-04T06:00:55.177Z,54.00
2018-09-04T06:01:55.468Z,57.50
2018-09-04T06:02:55.737Z,55.60
2018-09-04T06:03:56.008Z,57.30
2018-09-04T06:04:56.261Z,54.20
2018-09-04T06:05:56.502Z,61.20
2018-09-04T06:06:56.745Z,52.50
2018-09-04T06:07:56.988Z,50.60
2018-09-04T06:08:57.231Z,48.30
2018-09-04T06:09:57.474Z,44.60
2018-09-04T06:10:57.717Z,44.80
2018-09-04T06:11:57.960Z,43.70
2018-09-04T06:12:58.208Z,42.40
2018-09-04T06:13:58.447Z,41.30
2018-09-04T06:14:58.696Z,41.10
2018-09-04T06:15:58.936Z,40.90
2018-09-04T06:16:59.177Z,47.40
2018-09-04T06:17:59.421Z,54.30
2018-09-04T06:18:59.664Z,54.10
2018-09-04T06:19:59.968Z,46.50
2018-09-04T06:21:00.151Z,47.40
2018-09-04T06:22:00.399Z,48.50
2018-09-04T06:23:00.641Z,62.20
2018-09-04T06:24:00.884Z,61.30
2018-09-04T06:25:01.128Z,50.60
2018-09-04T06:26:01.372Z,59.80
2018-09-04T06:27:01.614Z,55.90
2018-09-04T06:28:01.859Z,48.60
2018-09-04T06:29:02.103Z,47.30
2018-09-04T06:30:02.352Z,46.40
2018-09-04T06:31:02.591Z,44.50
2018-09-04T06:32:02.833Z,44.20
2018-09-04T06:33:03.076Z,47.00
2018-09-04T06:34:03.404Z,47.30
2018-09-04T06:35:03.568Z,47.00
2018-09-04T06:36:03.811Z,70.30
2018-09-04T06:37:04.055Z,65.20
2018-09-04T06:38:04.297Z,61.10
2018-09-04T06:39:04.542Z,53.80
2018-09-04T06:40:04.787Z,62.00
2018-09-04T06:41:05.032Z,59.20
2018-09-04T06:42:05.277Z,48.10
2018-09-04T06:43:05.517Z,43.90
2018-09-04T06:44:05.761Z,60.60
2018-09-04T06:45:06.005Z,69.60
2018-09-04T06:46:06.246Z,56.90
2018-09-04T06:47:06.491Z,50.70
2018-09-04T06:48:06.734Z,44.60
2018-09-04T06:49:06.979Z,57.20
2018-09-04T06:50:07.223Z,57.50
2018-09-04T06:51:07.467Z,50.90
2018-09-04T06:52:07.711Z,56.70
2018-09-04T06:53:07.954Z,45.30
2018-09-04T06:54:08.198Z,46.20
2018-09-04T06:55:08.442Z,59.20
2018-09-04T06:56:08.686Z,53.00
2018-09-04T06:57:08.930Z,50.70
2018-09-04T06:58:09.173Z,47.40
2018-09-04T06:59:09.416Z,49.50
2018-09-04T07:00:09.663Z,48.70
2018-09-04T07:01:09.930Z,47.20
2018-09-04T07:02:10.147Z,39.60
2018-09-04T07:03:10.391Z,45.00
2018-09-04T07:04:10.637Z,46.70
2018-09-04T07:05:10.880Z,40.40
2018-09-04T07:06:11.241Z,39.20
2018-09-04T07:07:11.375Z,39.40
2018-09-04T07:08:11.617Z,36.70
2018-09-04T07:09:11.860Z,37.30
2018-09-04T07:10:12.104Z,36.50
2018-09-04T07:11:12.349Z,38.60
2018-09-04T07:12:12.593Z,36.60
2018-09-04T07:13:12.845Z,37.00
2018-09-04T07:14:13.082Z,37.80
2018-09-04T07:15:13.328Z,39.50
2018-09-04T07:16:13.574Z,38.80
2018-09-04T07:17:13.895Z,35.50
2018-09-04T07:18:14.060Z,39.60
2018-09-04T07:19:14.304Z,37.40
2018-09-04T07:20:14.549Z,36.80
2018-09-04T07:21:14.794Z,36.30
2018-09-04T07:22:15.038Z,37.10
2018-09-04T07:23:15.283Z,43.80
2018-09-04T07:24:15.582Z,43.80
2018-09-04T07:25:15.771Z,45.70
2018-09-04T07:26:16.019Z,41.80
2018-09-04T07:27:16.263Z,41.00
2018-09-04T07:28:16.509Z,36.80
2018-09-04T07:29:16.753Z,36.20
2018-09-04T07:30:16.998Z,35.80
2018-09-04T07:31:17.243Z,35.60
2018-09-04T07:32:17.490Z,34.20
2018-09-04T07:33:25.345Z,33.60
2018-09-04T07:34:18.018Z,34.40
2018-09-04T07:35:18.251Z,31.90
2018-09-04T07:36:18.512Z,32.60
2018-09-04T07:37:18.740Z,30.70
2018-09-04T07:38:18.984Z,33.20
2018-09-04T07:39:19.226Z,31.50
2018-09-04T07:40:19.472Z,31.20
2018-09-04T07:41:19.719Z,31.70
2018-09-04T07:42:19.961Z,30.00
2018-09-04T07:43:20.207Z,30.50
2018-09-04T07:44:20.452Z,30.50
2018-09-04T07:45:20.698Z,30.40
2018-09-04T07:46:20.942Z,28.80
2018-09-04T07:47:21.188Z,28.80
2018-09-04T07:48:21.434Z,26.90
2018-09-04T07:49:21.683Z,27.40
2018-09-04T07:50:21.927Z,26.20
2018-09-04T07:51:22.174Z,25.90
2018-09-04T07:52:22.419Z,27.00
2018-09-04T07:53:22.667Z,26.40
2018-09-04T07:54:22.912Z,25.00
2018-09-04T07:55:23.158Z,26.30
2018-09-04T07:56:23.407Z,26.20
2018-09-04T07:57:23.650Z,24.60
2018-09-04T07:58:23.897Z,24.30
2018-09-04T07:59:24.144Z,23.70
2018-09-04T08:00:24.390Z,23.10
2018-09-04T08:01:24.637Z,23.70
2018-09-04T08:02:24.886Z,24.40
2018-09-04T08:03:25.137Z,24.40
2018-09-04T08:04:25.381Z,23.60
2018-09-04T08:05:25.629Z,25.20
2018-09-04T08:06:25.876Z,22.80
2018-09-04T08:07:26.123Z,23.90
2018-09-04T08:08:26.371Z,22.80
2018-09-04T08:09:26.618Z,23.70
2018-09-04T08:10:26.867Z,23.70
2018-09-04T08:11:27.114Z,24.00
2018-09-04T08:12:27.368Z,24.10
2018-09-04T08:13:27.611Z,23.70
2018-09-04T08:14:27.855Z,23.00
2018-09-04T08:15:28.104Z,22.80
2018-09-04T08:16:28.415Z,22.20
2018-09-04T08:17:28.600Z,22.60
2018-09-04T08:18:28.848Z,23.70
2018-09-04T08:19:29.097Z,23.00
2018-09-04T08:20:29.418Z,22.60
2018-09-04T08:21:29.600Z,24.20
2018-09-04T08:22:29.842Z,23.10
2018-09-04T08:23:30.094Z,24.10
2018-09-04T08:24:30.339Z,23.90
2018-09-04T08:25:30.589Z,24.10
2018-09-04T08:26:30.840Z,24.30
2018-09-04T08:27:31.090Z,23.80
2018-09-04T08:28:31.340Z,23.50
2018-09-04T08:29:31.588Z,24.20
2018-09-04T08:30:31.839Z,24.10
2018-09-04T08:31:32.088Z,22.80
2018-09-04T08:32:32.338Z,22.80
2018-09-04T08:33:32.589Z,22.60
2018-09-04T08:34:32.840Z,23.40
2018-09-04T08:35:33.089Z,22.60
2018-09-04T08:36:33.339Z,22.60
2018-09-04T08:37:33.597Z,22.80
2018-09-04T08:38:33.842Z,23.50
2018-09-04T08:39:34.092Z,23.40
2018-09-04T08:40:34.343Z,23.30
2018-09-04T08:41:34.594Z,23.80
2018-09-04T08:42:34.844Z,23.30
2018-09-04T08:43:35.097Z,23.90
2018-09-04T08:44:35.350Z,23.60
2018-09-04T08:45:35.600Z,23.30
2018-09-04T08:46:35.857Z,23.40
2018-09-04T08:47:36.108Z,23.10
2018-09-04T08:48:36.356Z,22.70
2018-09-04T08:49:36.612Z,22.20
2018-09-04T08:50:36.900Z,21.50
2018-09-04T08:51:37.111Z,21.70
2018-09-04T08:52:37.364Z,20.00
2018-09-04T08:53:37.717Z,20.60
2018-09-04T08:54:37.866Z,20.30
2018-09-04T08:55:38.119Z,22.00
2018-09-04T08:56:38.372Z,20.70
2018-09-04T08:57:38.612Z,21.20
2018-09-04T08:58:38.990Z,20.60
2018-09-04T08:59:39.138Z,20.40
2018-09-04T09:00:39.393Z,20.90
2018-09-04T09:01:39.645Z,20.60
2018-09-04T09:02:39.899Z,21.40
2018-09-04T09:03:40.160Z,20.90
2018-09-04T09:04:40.406Z,21.10
2018-09-04T09:05:40.704Z,20.50
2018-09-04T09:06:40.913Z,21.10
2018-09-04T09:07:41.167Z,20.40
2018-09-04T09:08:41.422Z,20.10
2018-09-04T09:09:41.697Z,19.60
2018-09-04T09:10:41.987Z,19.40
2018-09-04T09:11:42.184Z,19.40
2018-09-04T09:12:42.437Z,18.70
2018-09-04T09:13:42.693Z,19.80
2018-09-04T09:14:42.946Z,19.40
2018-09-04T09:15:43.199Z,19.50
2018-09-04T09:16:43.485Z,18.10
2018-09-04T09:17:43.710Z,18.90
2018-09-04T09:18:43.962Z,17.80
2018-09-04T09:19:44.216Z,17.50
2018-09-04T09:20:44.469Z,17.90
2018-09-04T09:21:44.727Z,17.80
2018-09-04T09:22:45.023Z,17.20
2018-09-04T09:23:45.241Z,17.40
2018-09-04T09:24:45.487Z,16.40
2018-09-04T09:25:45.742Z,17.20
2018-09-04T09:26:45.997Z,16.80
2018-09-04T09:27:46.251Z,16.50
2018-09-04T09:28:46.505Z,16.60
2018-09-04T09:29:46.769Z,17.20
2018-09-04T09:30:47.014Z,16.10
2018-09-04T09:31:47.269Z,16.50
2018-09-04T09:32:47.523Z,15.60
2018-09-04T09:33:47.779Z,15.40
2018-09-04T09:34:48.059Z,16.10
2018-09-04T09:35:48.292Z,15.70
2018-09-04T09:36:48.606Z,15.10
2018-09-04T09:37:48.804Z,16.30
2018-09-04T09:38:49.061Z,16.60
2018-09-04T09:39:49.315Z,15.30
2018-09-04T09:40:49.570Z,15.20
2018-09-04T09:41:49.825Z,16.20
2018-09-04T09:42:50.082Z,15.40
2018-09-04T09:43:50.338Z,15.00
2018-09-04T09:44:50.592Z,15.30
2018-09-04T09:45:50.849Z,14.40
2018-09-04T09:46:51.106Z,14.60
2018-09-04T09:47:51.360Z,15.20
2018-09-04T09:48:51.616Z,13.80
2018-09-04T09:49:51.874Z,14.40
2018-09-04T09:50:52.236Z,13.80
2018-09-04T09:51:52.383Z,13.40
2018-09-04T09:52:52.692Z,13.40
2018-09-04T09:53:52.902Z,13.50
2018-09-04T09:54:53.153Z,14.40
2018-09-04T09:55:53.410Z,14.90
2018-09-04T09:56:53.665Z,14.60
2018-09-04T09:57:53.924Z,14.00
2018-09-04T09:58:54.178Z,14.20
2018-09-04T09:59:54.442Z,13.70
2018-09-04T10:00:54.710Z,13.90
2018-09-04T10:01:54.949Z,13.30
2018-09-04T10:02:55.204Z,13.80
2018-09-04T10:03:55.488Z,13.10
2018-09-04T10:04:55.718Z,13.30
2018-09-04T10:05:55.973Z,11.90
2018-09-04T10:06:56.231Z,12.20
2018-09-04T10:07:56.531Z,12.00
2018-09-04T10:08:56.744Z,11.50
2018-09-04T10:09:57.015Z,12.00
2018-09-04T10:10:57.262Z,11.60
2018-09-04T10:11:57.513Z,11.40
2018-09-04T10:12:57.770Z,11.80
2018-09-04T10:13:58.029Z,12.40
2018-09-04T10:14:58.285Z,11.30
2018-09-04T10:15:58.540Z,12.50
2018-09-04T10:16:58.798Z,11.20
2018-09-04T10:17:59.053Z,10.50
2018-09-04T10:18:59.311Z,11.10
2018-09-04T10:19:59.651Z,11.50
2018-09-04T10:20:59.826Z,11.10
2018-09-04T10:22:00.084Z,11.00
2018-09-04T10:23:00.341Z,11.40
2018-09-04T10:24:00.597Z,11.30
2018-09-04T10:25:00.856Z,10.90
2018-09-04T10:26:01.118Z,11.00
2018-09-04T10:27:01.373Z,10.90
2018-09-04T10:28:01.635Z,11.10
2018-09-04T10:29:01.889Z,11.00
2018-09-04T10:30:02.147Z,10.70
2018-09-04T10:31:02.404Z,11.00
2018-09-04T10:32:02.667Z,10.00
2018-09-04T10:33:02.920Z,9.60
2018-09-04T10:34:03.176Z,9.30
2018-09-04T10:35:03.434Z,9.80
2018-09-04T10:36:03.691Z,10.10
2018-09-04T10:37:03.947Z,9.50
2018-09-04T10:38:04.205Z,10.10
2018-09-04T10:39:04.463Z,9.80
2018-09-04T10:40:04.720Z,8.60
2018-09-04T10:41:04.977Z,9.00
2018-09-04T10:42:05.248Z,9.60
2018-09-04T10:43:05.492Z,9.90
2018-09-04T10:44:05.750Z,9.00
2018-09-04T10:45:06.009Z,10.10
2018-09-04T10:46:06.263Z,8.90
2018-09-04T10:47:06.526Z,9.40
2018-09-04T10:48:06.779Z,8.90
2018-09-04T10:49:07.037Z,9.20
2018-09-04T10:50:07.292Z,8.90
2018-09-04T10:51:07.550Z,9.10
2018-09-04T10:52:07.808Z,9.20
2018-09-04T10:53:08.066Z,8.40
2018-09-04T10:54:08.323Z,9.60
2018-09-04T10:55:08.582Z,9.40
2018-09-04T10:56:08.845Z,8.90
2018-09-04T10:57:09.100Z,8.90
2018-09-04T10:58:09.358Z,9.60
2018-09-04T10:59:09.616Z,9.60
2018-09-04T11:00:09.874Z,9.30
2018-09-04T11:01:10.132Z,9.70
2018-09-04T11:02:10.392Z,10.40
2018-09-04T11:03:10.646Z,10.40
2018-09-04T11:04:10.904Z,10.50
2018-09-04T11:05:11.161Z,9.80
2018-09-04T11:06:11.417Z,8.70
2018-09-04T11:07:11.673Z,9.20
2018-09-04T11:08:11.935Z,9.00
2018-09-04T11:09:12.207Z,9.40
2018-09-04T11:10:12.447Z,9.90
2018-09-04T11:11:12.706Z,9.70
2018-09-04T11:12:12.963Z,9.60
2018-09-04T11:13:13.220Z,10.40
2018-09-04T11:14:13.478Z,9.70
2018-09-04T11:15:13.734Z,10.40
2018-09-04T11:16:13.993Z,10.30
2018-09-04T11:17:14.253Z,11.00
2018-09-04T11:18:14.513Z,10.40
2018-09-04T11:19:14.768Z,10.70
2018-09-04T11:20:15.024Z,10.70
2018-09-04T11:21:15.280Z,9.80
2018-09-04T11:22:15.535Z,9.50
2018-09-04T11:23:15.791Z,10.30
2018-09-04T11:24:16.047Z,9.70
2018-09-04T11:25:16.302Z,9.80
2018-09-04T11:26:16.558Z,10.30
2018-09-04T11:27:16.813Z,10.20
2018-09-04T11:28:17.069Z,9.50
2018-09-04T11:29:17.323Z,8.50
2018-09-04T11:30:17.579Z,9.20
2018-09-04T11:31:17.834Z,9.70
2018-09-04T11:32:18.090Z,9.00
2018-09-04T11:33:18.347Z,9.00
2018-09-04T11:34:18.605Z,9.30
2018-09-04T11:35:18.871Z,9.20
2018-09-04T11:36:19.120Z,8.30
2018-09-04T11:37:19.376Z,8.80
2018-09-04T11:38:19.638Z,7.80
2018-09-04T11:39:19.890Z,8.60
2018-09-04T11:40:20.146Z,8.50
2018-09-04T11:41:20.401Z,8.20
2018-09-04T11:42:20.660Z,8.00
2018-09-04T11:43:20.917Z,8.50
2018-09-04T11:44:21.175Z,8.30
2018-09-04T11:45:21.430Z,8.40
2018-09-04T11:46:21.690Z,8.40
2018-09-04T11:47:21.947Z,7.60
2018-09-04T11:48:22.202Z,7.90
2018-09-04T11:49:22.459Z,8.20
2018-09-04T11:50:22.717Z,7.40
2018-09-04T11:51:22.974Z,8.20
2018-09-04T11:52:23.264Z,8.80
2018-09-04T11:53:23.491Z,8.00
2018-09-04T11:54:23.751Z,8.50
2018-09-04T11:55:24.008Z,8.50
2018-09-04T11:56:24.264Z,8.70
2018-09-04T11:57:24.523Z,8.30
2018-09-04T11:58:24.827Z,8.30
2018-09-04T11:59:25.038Z,8.60
2018-09-04T12:00:25.296Z,8.70
2018-09-04T12:01:25.553Z,7.80
2018-09-04T12:02:25.812Z,7.90
2018-09-04T12:03:26.070Z,8.80
2018-09-04T12:04:26.325Z,9.70
2018-09-04T12:05:26.580Z,7.90
2018-09-04T12:06:26.842Z,7.70
2018-09-04T12:07:27.091Z,7.60
2018-09-04T12:08:27.346Z,6.90
2018-09-04T12:09:27.602Z,6.70
2018-09-04T12:10:27.858Z,6.60
2018-09-04T12:11:28.116Z,7.10
2018-09-04T12:12:28.544Z,6.40
2018-09-04T12:13:28.630Z,6.30
2018-09-04T12:14:28.892Z,7.20
2018-09-04T12:15:29.144Z,7.00
2018-09-04T12:16:29.403Z,6.80
2018-09-04T12:17:29.660Z,7.10
2018-09-04T12:18:29.917Z,7.30
2018-09-04T12:19:30.175Z,6.70
2018-09-04T12:20:30.432Z,7.10
2018-09-04T12:21:30.691Z,6.70
2018-09-04T12:22:30.946Z,6.50
2018-09-04T12:23:31.193Z,6.30
2018-09-04T12:24:31.453Z,5.30
2018-09-04T12:25:31.711Z,4.90
2018-09-04T12:26:31.969Z,5.00
2018-09-04T12:27:32.228Z,5.80
2018-09-04T12:28:32.485Z,6.00
2018-09-04T12:29:32.744Z,6.50
2018-09-04T12:30:33.002Z,6.30
2018-09-04T12:31:33.259Z,6.70
2018-09-04T12:32:33.518Z,6.70
2018-09-04T12:33:33.773Z,6.60
2018-09-04T12:34:34.030Z,6.90
2018-09-04T12:35:34.285Z,7.20
2018-09-04T12:36:34.602Z,7.30
2018-09-04T12:37:34.801Z,7.90
2018-09-04T12:38:35.057Z,7.90
2018-09-04T12:39:35.314Z,8.10
2018-09-04T12:40:35.570Z,7.10
2018-09-04T12:41:35.827Z,6.60
2018-09-04T12:42:36.117Z,7.20
2018-09-04T12:43:36.339Z,7.10
2018-09-04T12:44:36.595Z,6.90
2018-09-04T12:45:36.843Z,6.80
2018-09-04T12:46:37.099Z,7.50
2018-09-04T12:47:37.355Z,7.30
2018-09-04T12:48:37.683Z,8.10
2018-09-04T12:49:37.866Z,7.50
2018-09-04T12:50:38.122Z,7.70
2018-09-04T12:51:38.384Z,7.50
2018-09-04T12:52:38.637Z,7.10
2018-09-04T12:53:38.895Z,7.40
2018-09-04T12:54:39.164Z,7.10
2018-09-04T12:55:39.400Z,6.50
2018-09-04T12:56:39.659Z,6.50
2018-09-04T12:57:39.913Z,6.80
2018-09-04T12:58:40.172Z,6.60
2018-09-04T12:59:40.427Z,6.80
2018-09-04T13:00:40.678Z,6.90
2018-09-04T13:01:40.934Z,6.60
2018-09-04T13:02:41.187Z,7.00
2018-09-04T13:03:41.442Z,7.10
2018-09-04T13:04:41.697Z,7.60
2018-09-04T13:05:41.951Z,6.10
2018-09-04T13:06:42.212Z,6.40
2018-09-04T13:07:42.462Z,5.40
2018-09-04T13:08:42.718Z,6.10
2018-09-04T13:09:42.973Z,6.20
2018-09-04T13:10:43.228Z,5.60
2018-09-04T13:11:43.482Z,5.40
2018-09-04T13:12:43.742Z,5.80
2018-09-04T13:13:43.999Z,5.20
2018-09-04T13:14:44.253Z,5.70